sensor_id;sensor_type;location;lat;lon;timestamp;temperature;humidity
15107;DHT22;7654;45.308;-75.096;2024-01-11T00:01:45;1.10;99.90
15107;DHT22;7654;45.308;-75.096;2024-01-11T00:04:16;1.00;99.90
15107;DHT22;7654;45.308;-75.096;2024-01-11T00:06:47;1.00;99.90
15107;DHT22;7654;45.308;-75.096;2024-01-11T00:09:20;1.00;99.90
15107;DHT22;7654;45.308;-75.096;2024-01-11T00:11:50;1.00;99.90
15107;DHT22;7654;45.308;-75.096;2024-01-11T00:14:20;1.10;99.90
15107;DHT22;7654;45.308;-75.096;2024-01-11T00:16:51;1.10;99.90
15107;DHT22;7654;45.308;-75.096;2024-01-11T00:19:22;1.10;99.90
15107;DHT22;7654;45.308;-75.096;2024-01-11T00:21:52;1.10;99.90
15107;DHT22;7654;45.308;-75.096;2024-01-11T00:24:24;1.10;99.90
15107;DHT22;7654;45.308;-75.096;2024-01-11T00:26:55;1.20;99.90
15107;DHT22;7654;45.308;-75.096;2024-01-11T00:29:25;1.20;99.90
15107;DHT22;7654;45.308;-75.096;2024-01-11T00:31:56;1.20;99.90
15107;DHT22;7654;45.308;-75.096;2024-01-11T00:34:27;1.20;99.90
15107;DHT22;7654;45.308;-75.096;2024-01-11T00:36:57;1.20;99.90
15107;DHT22;7654;45.308;-75.096;2024-01-11T00:39:29;1.20;99.90
15107;DHT22;7654;45.308;-75.096;2024-01-11T00:41:59;1.20;99.90
15107;DHT22;7654;45.308;-75.096;2024-01-11T00:44:30;1.10;99.90
15107;DHT22;7654;45.308;-75.096;2024-01-11T00:47:01;1.00;99.90
15107;DHT22;7654;45.308;-75.096;2024-01-11T00:49:32;0.90;99.90
15107;DHT22;7654;45.308;-75.096;2024-01-11T00:52:03;0.90;99.90
15107;DHT22;7654;45.308;-75.096;2024-01-11T00:54:37;0.80;99.90
15107;DHT22;7654;45.308;-75.096;2024-01-11T00:57:10;0.80;99.90
15107;DHT22;7654;45.308;-75.096;2024-01-11T00:59:41;0.80;99.90
15107;DHT22;7654;45.308;-75.096;2024-01-11T01:02:11;0.80;99.90
15107;DHT22;7654;45.308;-75.096;2024-01-11T01:04:42;0.80;99.90
15107;DHT22;7654;45.308;-75.096;2024-01-11T01:07:14;0.70;99.90
15107;DHT22;7654;45.308;-75.096;2024-01-11T01:09:46;0.70;99.90
15107;DHT22;7654;45.308;-75.096;2024-01-11T01:12:17;0.60;99.90
15107;DHT22;7654;45.308;-75.096;2024-01-11T01:14:47;0.60;99.90
15107;DHT22;7654;45.308;-75.096;2024-01-11T01:17:21;0.50;99.90
15107;DHT22;7654;45.308;-75.096;2024-01-11T01:19:51;0.40;99.90
15107;DHT22;7654;45.308;-75.096;2024-01-11T01:22:22;0.40;99.90
15107;DHT22;7654;45.308;-75.096;2024-01-11T01:24:55;0.30;99.90
15107;DHT22;7654;45.308;-75.096;2024-01-11T01:27:26;0.20;99.90
15107;DHT22;7654;45.308;-75.096;2024-01-11T01:29:57;0.10;99.90
15107;DHT22;7654;45.308;-75.096;2024-01-11T01:32:30;-0.10;99.90
15107;DHT22;7654;45.308;-75.096;2024-01-11T01:35:01;-0.20;99.90
15107;DHT22;7654;45.308;-75.096;2024-01-11T01:37:32;-0.30;99.90
15107;DHT22;7654;45.308;-75.096;2024-01-11T01:40:07;-0.40;99.90
15107;DHT22;7654;45.308;-75.096;2024-01-11T01:42:42;-0.40;99.90
15107;DHT22;7654;45.308;-75.096;2024-01-11T01:45:14;-0.50;99.90
15107;DHT22;7654;45.308;-75.096;2024-01-11T01:47:46;-0.50;99.90
15107;DHT22;7654;45.308;-75.096;2024-01-11T01:50:16;-0.50;99.90
15107;DHT22;7654;45.308;-75.096;2024-01-11T01:52:49;-0.70;99.90
15107;DHT22;7654;45.308;-75.096;2024-01-11T01:55:23;-0.80;99.90
15107;DHT22;7654;45.308;-75.096;2024-01-11T01:57:54;-0.80;99.90
15107;DHT22;7654;45.308;-75.096;2024-01-11T02:00:25;-0.90;99.90
15107;DHT22;7654;45.308;-75.096;2024-01-11T02:02:56;-0.90;99.90
15107;DHT22;7654;45.308;-75.096;2024-01-11T02:05:27;-1.00;99.90
15107;DHT22;7654;45.308;-75.096;2024-01-11T02:08:00;-1.00;99.90
15107;DHT22;7654;45.308;-75.096;2024-01-11T02:10:40;-1.10;99.90
15107;DHT22;7654;45.308;-75.096;2024-01-11T02:13:11;-1.10;99.90
15107;DHT22;7654;45.308;-75.096;2024-01-11T02:15:43;-1.10;99.90
15107;DHT22;7654;45.308;-75.096;2024-01-11T02:18:14;-1.20;99.90
15107;DHT22;7654;45.308;-75.096;2024-01-11T02:20:44;-1.20;99.90
15107;DHT22;7654;45.308;-75.096;2024-01-11T02:23:17;-1.30;99.90
15107;DHT22;7654;45.308;-75.096;2024-01-11T02:25:50;-1.30;99.90
15107;DHT22;7654;45.308;-75.096;2024-01-11T02:28:21;-1.30;99.90
15107;DHT22;7654;45.308;-75.096;2024-01-11T02:30:51;-1.40;99.90
15107;DHT22;7654;45.308;-75.096;2024-01-11T02:33:22;-1.40;99.90
15107;DHT22;7654;45.308;-75.096;2024-01-11T02:35:53;-1.50;99.90
15107;DHT22;7654;45.308;-75.096;2024-01-11T02:38:24;-1.50;99.90
15107;DHT22;7654;45.308;-75.096;2024-01-11T02:40:57;-1.60;99.90
15107;DHT22;7654;45.308;-75.096;2024-01-11T02:43:28;-1.70;99.90
15107;DHT22;7654;45.308;-75.096;2024-01-11T02:45:59;-1.80;99.90
15107;DHT22;7654;45.308;-75.096;2024-01-11T02:48:30;-1.80;99.90
15107;DHT22;7654;45.308;-75.096;2024-01-11T02:51:00;-1.90;99.90
15107;DHT22;7654;45.308;-75.096;2024-01-11T02:53:30;-1.90;99.90
15107;DHT22;7654;45.308;-75.096;2024-01-11T02:56:04;-2.00;99.90
15107;DHT22;7654;45.308;-75.096;2024-01-11T02:58:35;-2.10;99.90
15107;DHT22;7654;45.308;-75.096;2024-01-11T03:01:06;-2.20;99.90
15107;DHT22;7654;45.308;-75.096;2024-01-11T03:03:36;-2.20;99.90
15107;DHT22;7654;45.308;-75.096;2024-01-11T03:06:07;-2.40;99.90
15107;DHT22;7654;45.308;-75.096;2024-01-11T03:08:37;-2.50;99.90
15107;DHT22;7654;45.308;-75.096;2024-01-11T03:11:09;-2.60;99.90
15107;DHT22;7654;45.308;-75.096;2024-01-11T03:13:39;-2.60;99.90
15107;DHT22;7654;45.308;-75.096;2024-01-11T03:16:09;-2.70;99.90
15107;DHT22;7654;45.308;-75.096;2024-01-11T03:18:40;-2.70;99.90
15107;DHT22;7654;45.308;-75.096;2024-01-11T03:21:10;-2.70;99.90
15107;DHT22;7654;45.308;-75.096;2024-01-11T03:23:40;-2.80;99.90
15107;DHT22;7654;45.308;-75.096;2024-01-11T03:26:16;-2.80;99.90
15107;DHT22;7654;45.308;-75.096;2024-01-11T03:28:47;-2.80;99.90
15107;DHT22;7654;45.308;-75.096;2024-01-11T03:31:17;-2.90;99.90
15107;DHT22;7654;45.308;-75.096;2024-01-11T03:33:47;-2.80;99.90
15107;DHT22;7654;45.308;-75.096;2024-01-11T03:36:18;-2.90;99.90
15107;DHT22;7654;45.308;-75.096;2024-01-11T03:38:48;-2.90;99.90
15107;DHT22;7654;45.308;-75.096;2024-01-11T03:41:21;-2.90;99.90
15107;DHT22;7654;45.308;-75.096;2024-01-11T03:43:51;-2.90;99.90
15107;DHT22;7654;45.308;-75.096;2024-01-11T03:46:22;-2.90;99.90
15107;DHT22;7654;45.308;-75.096;2024-01-11T03:48:52;-2.90;99.90
15107;DHT22;7654;45.308;-75.096;2024-01-11T03:51:24;-2.90;99.90
15107;DHT22;7654;45.308;-75.096;2024-01-11T03:53:54;-2.90;99.90
15107;DHT22;7654;45.308;-75.096;2024-01-11T03:56:26;-2.90;99.90
15107;DHT22;7654;45.308;-75.096;2024-01-11T03:58:57;-2.90;99.90
15107;DHT22;7654;45.308;-75.096;2024-01-11T04:01:27;-2.90;99.90
15107;DHT22;7654;45.308;-75.096;2024-01-11T04:03:58;-2.90;99.90
15107;DHT22;7654;45.308;-75.096;2024-01-11T04:06:28;-3.00;99.90
15107;DHT22;7654;45.308;-75.096;2024-01-11T04:08:59;-3.00;99.90
15107;DHT22;7654;45.308;-75.096;2024-01-11T04:11:31;-3.00;99.90
15107;DHT22;7654;45.308;-75.096;2024-01-11T04:14:01;-3.00;99.90
15107;DHT22;7654;45.308;-75.096;2024-01-11T04:16:32;-3.00;99.90
15107;DHT22;7654;45.308;-75.096;2024-01-11T04:19:02;-3.00;99.90
15107;DHT22;7654;45.308;-75.096;2024-01-11T04:21:32;-3.00;99.90
15107;DHT22;7654;45.308;-75.096;2024-01-11T04:24:03;-3.10;99.90
15107;DHT22;7654;45.308;-75.096;2024-01-11T04:26:35;-3.10;99.90
15107;DHT22;7654;45.308;-75.096;2024-01-11T04:29:06;-3.10;99.90
15107;DHT22;7654;45.308;-75.096;2024-01-11T04:31:36;-3.10;99.90
15107;DHT22;7654;45.308;-75.096;2024-01-11T04:34:06;-3.10;99.90
15107;DHT22;7654;45.308;-75.096;2024-01-11T04:36:38;-3.10;99.90
15107;DHT22;7654;45.308;-75.096;2024-01-11T04:39:08;-3.20;99.90
15107;DHT22;7654;45.308;-75.096;2024-01-11T04:41:41;-3.20;99.90
15107;DHT22;7654;45.308;-75.096;2024-01-11T04:44:11;-3.20;99.90
15107;DHT22;7654;45.308;-75.096;2024-01-11T04:46:41;-3.20;99.90
15107;DHT22;7654;45.308;-75.096;2024-01-11T04:49:11;-3.40;99.90
15107;DHT22;7654;45.308;-75.096;2024-01-11T04:51:42;-3.30;99.90
15107;DHT22;7654;45.308;-75.096;2024-01-11T04:54:12;-3.40;99.90
15107;DHT22;7654;45.308;-75.096;2024-01-11T04:56:45;-3.40;99.90
15107;DHT22;7654;45.308;-75.096;2024-01-11T04:59:16;-3.50;99.90
15107;DHT22;7654;45.308;-75.096;2024-01-11T05:01:46;-3.50;99.90
15107;DHT22;7654;45.308;-75.096;2024-01-11T05:04:16;-3.50;99.90
15107;DHT22;7654;45.308;-75.096;2024-01-11T05:06:46;-3.50;99.90
15107;DHT22;7654;45.308;-75.096;2024-01-11T05:09:17;-3.60;99.90
15107;DHT22;7654;45.308;-75.096;2024-01-11T05:11:48;-3.60;99.90
15107;DHT22;7654;45.308;-75.096;2024-01-11T05:14:19;-3.60;99.90
15107;DHT22;7654;45.308;-75.096;2024-01-11T05:16:49;-3.70;99.90
15107;DHT22;7654;45.308;-75.096;2024-01-11T05:19:20;-3.70;99.90
15107;DHT22;7654;45.308;-75.096;2024-01-11T05:21:50;-3.70;99.90
15107;DHT22;7654;45.308;-75.096;2024-01-11T05:24:20;-3.70;99.90
15107;DHT22;7654;45.308;-75.096;2024-01-11T05:26:52;-3.70;99.90
15107;DHT22;7654;45.308;-75.096;2024-01-11T05:29:22;-3.80;99.90
15107;DHT22;7654;45.308;-75.096;2024-01-11T05:31:52;-3.80;99.90
15107;DHT22;7654;45.308;-75.096;2024-01-11T05:34:24;-3.80;99.90
15107;DHT22;7654;45.308;-75.096;2024-01-11T05:36:55;-3.80;99.90
15107;DHT22;7654;45.308;-75.096;2024-01-11T05:39:27;-3.80;99.90
15107;DHT22;7654;45.308;-75.096;2024-01-11T05:41:59;-3.80;99.90
15107;DHT22;7654;45.308;-75.096;2024-01-11T05:44:29;-3.80;99.90
15107;DHT22;7654;45.308;-75.096;2024-01-11T05:46:59;-3.80;99.90
15107;DHT22;7654;45.308;-75.096;2024-01-11T05:49:29;-3.80;99.90
15107;DHT22;7654;45.308;-75.096;2024-01-11T05:52:00;-3.80;99.90
15107;DHT22;7654;45.308;-75.096;2024-01-11T05:54:30;-3.80;99.90
15107;DHT22;7654;45.308;-75.096;2024-01-11T05:57:02;-3.80;99.90
15107;DHT22;7654;45.308;-75.096;2024-01-11T05:59:32;-3.80;99.90
15107;DHT22;7654;45.308;-75.096;2024-01-11T06:02:03;-3.80;99.90
15107;DHT22;7654;45.308;-75.096;2024-01-11T06:04:33;-3.90;99.90
15107;DHT22;7654;45.308;-75.096;2024-01-11T06:07:04;-3.80;99.90
15107;DHT22;7654;45.308;-75.096;2024-01-11T06:09:34;-3.80;99.90
15107;DHT22;7654;45.308;-75.096;2024-01-11T06:12:06;-3.80;99.90
15107;DHT22;7654;45.308;-75.096;2024-01-11T06:14:37;-3.80;99.90
15107;DHT22;7654;45.308;-75.096;2024-01-11T06:17:07;-3.80;99.90
15107;DHT22;7654;45.308;-75.096;2024-01-11T06:19:39;-3.80;99.90
15107;DHT22;7654;45.308;-75.096;2024-01-11T06:22:09;-3.80;99.90
15107;DHT22;7654;45.308;-75.096;2024-01-11T06:24:39;-3.80;99.90
15107;DHT22;7654;45.308;-75.096;2024-01-11T06:27:11;-3.80;99.90
15107;DHT22;7654;45.308;-75.096;2024-01-11T06:29:41;-3.80;99.90
15107;DHT22;7654;45.308;-75.096;2024-01-11T06:32:11;-3.70;99.90
15107;DHT22;7654;45.308;-75.096;2024-01-11T06:34:42;-3.80;99.90
15107;DHT22;7654;45.308;-75.096;2024-01-11T06:37:14;-3.80;99.90
15107;DHT22;7654;45.308;-75.096;2024-01-11T06:39:44;-3.80;99.90
15107;DHT22;7654;45.308;-75.096;2024-01-11T06:42:17;-3.80;99.90
15107;DHT22;7654;45.308;-75.096;2024-01-11T06:44:47;-3.80;99.90
15107;DHT22;7654;45.308;-75.096;2024-01-11T06:47:17;-3.80;99.90
15107;DHT22;7654;45.308;-75.096;2024-01-11T06:49:48;-3.80;99.90
15107;DHT22;7654;45.308;-75.096;2024-01-11T06:52:18;-3.80;99.90
15107;DHT22;7654;45.308;-75.096;2024-01-11T06:54:49;-3.80;99.90
15107;DHT22;7654;45.308;-75.096;2024-01-11T06:57:21;-3.80;99.90
15107;DHT22;7654;45.308;-75.096;2024-01-11T06:59:53;-3.80;99.90
15107;DHT22;7654;45.308;-75.096;2024-01-11T07:02:23;-3.80;99.90
15107;DHT22;7654;45.308;-75.096;2024-01-11T07:04:54;-3.80;99.90
15107;DHT22;7654;45.308;-75.096;2024-01-11T07:07:25;-3.80;99.90
15107;DHT22;7654;45.308;-75.096;2024-01-11T07:09:55;-3.80;99.90
15107;DHT22;7654;45.308;-75.096;2024-01-11T07:12:27;-3.80;99.90
15107;DHT22;7654;45.308;-75.096;2024-01-11T07:14:57;-3.80;99.90
15107;DHT22;7654;45.308;-75.096;2024-01-11T07:17:27;-3.80;99.90
15107;DHT22;7654;45.308;-75.096;2024-01-11T07:19:58;-3.80;99.90
15107;DHT22;7654;45.308;-75.096;2024-01-11T07:22:28;-3.80;99.90
15107;DHT22;7654;45.308;-75.096;2024-01-11T07:24:58;-3.80;99.90
15107;DHT22;7654;45.308;-75.096;2024-01-11T07:27:30;-3.80;99.90
15107;DHT22;7654;45.308;-75.096;2024-01-11T07:30:00;-3.80;99.90
15107;DHT22;7654;45.308;-75.096;2024-01-11T07:32:31;-3.90;99.90
15107;DHT22;7654;45.308;-75.096;2024-01-11T07:35:02;-3.80;99.90
15107;DHT22;7654;45.308;-75.096;2024-01-11T07:37:37;-3.80;99.90
15107;DHT22;7654;45.308;-75.096;2024-01-11T07:40:09;-3.90;99.90
15107;DHT22;7654;45.308;-75.096;2024-01-11T07:42:43;-3.90;99.90
15107;DHT22;7654;45.308;-75.096;2024-01-11T07:45:14;-3.90;99.90
15107;DHT22;7654;45.308;-75.096;2024-01-11T07:47:44;-3.90;99.90
15107;DHT22;7654;45.308;-75.096;2024-01-11T07:50:15;-3.90;99.90
15107;DHT22;7654;45.308;-75.096;2024-01-11T07:52:45;-3.90;99.90
15107;DHT22;7654;45.308;-75.096;2024-01-11T07:55:15;-4.00;99.90
15107;DHT22;7654;45.308;-75.096;2024-01-11T07:57:47;-4.00;99.90
15107;DHT22;7654;45.308;-75.096;2024-01-11T08:00:19;-4.00;99.90
15107;DHT22;7654;45.308;-75.096;2024-01-11T08:02:49;-4.00;99.90
15107;DHT22;7654;45.308;-75.096;2024-01-11T08:05:19;-4.00;99.90
15107;DHT22;7654;45.308;-75.096;2024-01-11T08:07:50;-4.00;99.90
15107;DHT22;7654;45.308;-75.096;2024-01-11T08:10:20;-4.00;99.90
15107;DHT22;7654;45.308;-75.096;2024-01-11T08:12:52;-4.00;99.90
15107;DHT22;7654;45.308;-75.096;2024-01-11T08:15:23;-4.00;99.90
15107;DHT22;7654;45.308;-75.096;2024-01-11T08:17:53;-4.00;99.90
15107;DHT22;7654;45.308;-75.096;2024-01-11T08:20:24;-4.00;99.90
15107;DHT22;7654;45.308;-75.096;2024-01-11T08:22:55;-4.00;99.90
15107;DHT22;7654;45.308;-75.096;2024-01-11T08:25:25;-4.10;99.90
15107;DHT22;7654;45.308;-75.096;2024-01-11T08:27:57;-4.10;99.90
15107;DHT22;7654;45.308;-75.096;2024-01-11T08:30:27;-4.10;99.90
15107;DHT22;7654;45.308;-75.096;2024-01-11T08:32:58;-4.10;99.90
15107;DHT22;7654;45.308;-75.096;2024-01-11T08:35:28;-4.10;99.90
15107;DHT22;7654;45.308;-75.096;2024-01-11T08:38:00;-4.10;99.90
15107;DHT22;7654;45.308;-75.096;2024-01-11T08:40:31;-4.10;99.90
15107;DHT22;7654;45.308;-75.096;2024-01-11T08:43:03;-4.10;99.90
15107;DHT22;7654;45.308;-75.096;2024-01-11T08:45:34;-4.10;99.90
15107;DHT22;7654;45.308;-75.096;2024-01-11T08:48:05;-4.20;99.90
15107;DHT22;7654;45.308;-75.096;2024-01-11T08:50:36;-4.20;99.90
15107;DHT22;7654;45.308;-75.096;2024-01-11T08:53:06;-4.20;99.90
15107;DHT22;7654;45.308;-75.096;2024-01-11T08:55:36;-4.20;99.90
15107;DHT22;7654;45.308;-75.096;2024-01-11T08:58:10;-4.20;99.90
15107;DHT22;7654;45.308;-75.096;2024-01-11T09:00:40;-4.20;99.90
15107;DHT22;7654;45.308;-75.096;2024-01-11T09:03:12;-4.20;99.90
15107;DHT22;7654;45.308;-75.096;2024-01-11T09:05:45;-4.30;99.90
15107;DHT22;7654;45.308;-75.096;2024-01-11T09:08:16;-4.30;99.90
15107;DHT22;7654;45.308;-75.096;2024-01-11T09:10:46;-4.30;99.90
15107;DHT22;7654;45.308;-75.096;2024-01-11T09:13:18;-4.30;99.90
15107;DHT22;7654;45.308;-75.096;2024-01-11T09:15:48;-4.30;99.90
15107;DHT22;7654;45.308;-75.096;2024-01-11T09:18:18;-4.40;99.90
15107;DHT22;7654;45.308;-75.096;2024-01-11T09:20:49;-4.40;99.90
15107;DHT22;7654;45.308;-75.096;2024-01-11T09:23:19;-4.40;99.90
15107;DHT22;7654;45.308;-75.096;2024-01-11T09:25:49;-4.40;99.90
15107;DHT22;7654;45.308;-75.096;2024-01-11T09:28:21;-4.40;99.90
15107;DHT22;7654;45.308;-75.096;2024-01-11T09:30:51;-4.40;99.90
15107;DHT22;7654;45.308;-75.096;2024-01-11T09:33:22;-4.50;99.90
15107;DHT22;7654;45.308;-75.096;2024-01-11T09:35:52;-4.50;99.90
15107;DHT22;7654;45.308;-75.096;2024-01-11T09:38:23;-4.50;99.90
15107;DHT22;7654;45.308;-75.096;2024-01-11T09:40:59;-4.50;99.90
15107;DHT22;7654;45.308;-75.096;2024-01-11T09:43:35;-4.50;99.90
15107;DHT22;7654;45.308;-75.096;2024-01-11T09:46:06;-4.50;99.90
15107;DHT22;7654;45.308;-75.096;2024-01-11T09:48:38;-4.50;99.90
15107;DHT22;7654;45.308;-75.096;2024-01-11T09:51:10;-4.60;99.90
15107;DHT22;7654;45.308;-75.096;2024-01-11T09:53:44;-4.60;99.90
15107;DHT22;7654;45.308;-75.096;2024-01-11T09:56:14;-4.60;99.90
15107;DHT22;7654;45.308;-75.096;2024-01-11T09:58:47;-4.60;99.90
15107;DHT22;7654;45.308;-75.096;2024-01-11T10:01:18;-4.70;99.90
15107;DHT22;7654;45.308;-75.096;2024-01-11T10:03:49;-4.70;99.90
15107;DHT22;7654;45.308;-75.096;2024-01-11T10:06:20;-4.80;99.90
15107;DHT22;7654;45.308;-75.096;2024-01-11T10:08:51;-4.90;99.90
15107;DHT22;7654;45.308;-75.096;2024-01-11T10:11:21;-5.00;99.90
15107;DHT22;7654;45.308;-75.096;2024-01-11T10:13:58;-5.10;99.90
15107;DHT22;7654;45.308;-75.096;2024-01-11T10:16:29;-5.20;99.90
15107;DHT22;7654;45.308;-75.096;2024-01-11T10:18:59;-5.30;99.90
15107;DHT22;7654;45.308;-75.096;2024-01-11T10:21:30;-5.40;99.90
15107;DHT22;7654;45.308;-75.096;2024-01-11T10:24:01;-5.40;99.90
15107;DHT22;7654;45.308;-75.096;2024-01-11T10:26:32;-5.50;99.90
15107;DHT22;7654;45.308;-75.096;2024-01-11T10:29:06;-5.60;99.90
15107;DHT22;7654;45.308;-75.096;2024-01-11T10:31:40;-5.70;99.90
15107;DHT22;7654;45.308;-75.096;2024-01-11T10:34:11;-5.80;99.90
15107;DHT22;7654;45.308;-75.096;2024-01-11T10:36:41;-5.90;99.90
15107;DHT22;7654;45.308;-75.096;2024-01-11T10:39:12;-5.90;99.90
15107;DHT22;7654;45.308;-75.096;2024-01-11T10:41:49;-5.90;99.90
15107;DHT22;7654;45.308;-75.096;2024-01-11T10:44:22;-6.10;99.90
15107;DHT22;7654;45.308;-75.096;2024-01-11T10:46:56;-6.20;99.90
15107;DHT22;7654;45.308;-75.096;2024-01-11T10:49:28;-6.20;99.90
15107;DHT22;7654;45.308;-75.096;2024-01-11T10:52:01;-6.20;99.90
15107;DHT22;7654;45.308;-75.096;2024-01-11T10:54:32;-6.30;99.90
15107;DHT22;7654;45.308;-75.096;2024-01-11T10:57:04;-6.40;99.90
15107;DHT22;7654;45.308;-75.096;2024-01-11T10:59:38;-6.50;99.90
15107;DHT22;7654;45.308;-75.096;2024-01-11T11:02:11;-6.50;99.90
15107;DHT22;7654;45.308;-75.096;2024-01-11T11:04:44;-6.60;99.90
15107;DHT22;7654;45.308;-75.096;2024-01-11T11:07:16;-6.60;99.90
15107;DHT22;7654;45.308;-75.096;2024-01-11T11:09:50;-6.60;99.90
15107;DHT22;7654;45.308;-75.096;2024-01-11T11:12:30;-6.50;99.90
15107;DHT22;7654;45.308;-75.096;2024-01-11T11:15:06;-6.60;99.90
15107;DHT22;7654;45.308;-75.096;2024-01-11T11:17:36;-6.70;99.90
15107;DHT22;7654;45.308;-75.096;2024-01-11T11:20:08;-6.80;99.90
15107;DHT22;7654;45.308;-75.096;2024-01-11T11:22:41;-6.90;99.90
15107;DHT22;7654;45.308;-75.096;2024-01-11T11:25:11;-6.90;99.90
15107;DHT22;7654;45.308;-75.096;2024-01-11T11:27:54;-6.90;99.90
15107;DHT22;7654;45.308;-75.096;2024-01-11T11:30:29;-7.00;99.90
15107;DHT22;7654;45.308;-75.096;2024-01-11T11:33:08;-7.10;99.90
15107;DHT22;7654;45.308;-75.096;2024-01-11T11:35:40;-7.10;99.90
15107;DHT22;7654;45.308;-75.096;2024-01-11T11:38:18;-7.00;99.90
15107;DHT22;7654;45.308;-75.096;2024-01-11T11:40:50;-7.10;99.90
15107;DHT22;7654;45.308;-75.096;2024-01-11T11:43:21;-7.10;99.90
15107;DHT22;7654;45.308;-75.096;2024-01-11T11:45:54;-7.10;99.90
15107;DHT22;7654;45.308;-75.096;2024-01-11T11:48:47;-7.10;99.90
15107;DHT22;7654;45.308;-75.096;2024-01-11T11:51:20;-7.10;99.90
15107;DHT22;7654;45.308;-75.096;2024-01-11T11:53:53;-7.10;99.90
15107;DHT22;7654;45.308;-75.096;2024-01-11T11:56:24;-7.10;99.90
15107;DHT22;7654;45.308;-75.096;2024-01-11T11:58:55;-7.20;99.90
15107;DHT22;7654;45.308;-75.096;2024-01-11T12:01:26;-7.20;99.90
15107;DHT22;7654;45.308;-75.096;2024-01-11T12:03:56;-7.20;99.90
15107;DHT22;7654;45.308;-75.096;2024-01-11T12:06:27;-7.20;99.90
15107;DHT22;7654;45.308;-75.096;2024-01-11T12:08:57;-7.30;99.90
15107;DHT22;7654;45.308;-75.096;2024-01-11T12:11:28;-7.40;99.90
15107;DHT22;7654;45.308;-75.096;2024-01-11T12:13:59;-7.40;99.90
15107;DHT22;7654;45.308;-75.096;2024-01-11T12:16:31;-7.40;99.90
15107;DHT22;7654;45.308;-75.096;2024-01-11T12:19:01;-7.30;99.90
15107;DHT22;7654;45.308;-75.096;2024-01-11T12:21:32;-7.40;99.90
15107;DHT22;7654;45.308;-75.096;2024-01-11T12:24:03;-7.40;99.90
15107;DHT22;7654;45.308;-75.096;2024-01-11T12:26:34;-7.40;99.90
15107;DHT22;7654;45.308;-75.096;2024-01-11T12:29:04;-7.50;99.90
15107;DHT22;7654;45.308;-75.096;2024-01-11T12:31:37;-7.40;99.90
15107;DHT22;7654;45.308;-75.096;2024-01-11T12:34:07;-7.40;99.90
15107;DHT22;7654;45.308;-75.096;2024-01-11T12:36:42;-7.50;99.90
15107;DHT22;7654;45.308;-75.096;2024-01-11T12:39:12;-7.40;99.90
15107;DHT22;7654;45.308;-75.096;2024-01-11T12:41:43;-7.40;99.90
15107;DHT22;7654;45.308;-75.096;2024-01-11T12:44:14;-7.40;99.90
15107;DHT22;7654;45.308;-75.096;2024-01-11T12:46:48;-7.40;99.90
15107;DHT22;7654;45.308;-75.096;2024-01-11T12:49:18;-7.30;99.90
15107;DHT22;7654;45.308;-75.096;2024-01-11T12:51:50;-7.20;99.90
15107;DHT22;7654;45.308;-75.096;2024-01-11T12:54:20;-7.10;99.90
15107;DHT22;7654;45.308;-75.096;2024-01-11T12:56:51;-6.90;99.90
15107;DHT22;7654;45.308;-75.096;2024-01-11T12:59:26;-6.80;99.90
15107;DHT22;7654;45.308;-75.096;2024-01-11T13:01:58;-6.70;99.90
15107;DHT22;7654;45.308;-75.096;2024-01-11T13:04:28;-6.50;99.90
15107;DHT22;7654;45.308;-75.096;2024-01-11T13:06:59;-6.40;99.90
15107;DHT22;7654;45.308;-75.096;2024-01-11T13:09:29;-6.40;99.90
15107;DHT22;7654;45.308;-75.096;2024-01-11T13:12:00;-6.30;99.90
15107;DHT22;7654;45.308;-75.096;2024-01-11T13:14:31;-6.10;99.90
15107;DHT22;7654;45.308;-75.096;2024-01-11T13:17:03;-6.00;99.90
15107;DHT22;7654;45.308;-75.096;2024-01-11T13:19:36;-5.90;99.90
15107;DHT22;7654;45.308;-75.096;2024-01-11T13:22:06;-5.80;99.90
15107;DHT22;7654;45.308;-75.096;2024-01-11T13:24:37;-5.70;99.90
15107;DHT22;7654;45.308;-75.096;2024-01-11T13:27:07;-5.70;99.90
15107;DHT22;7654;45.308;-75.096;2024-01-11T13:29:37;-5.60;99.90
15107;DHT22;7654;45.308;-75.096;2024-01-11T13:32:09;-5.60;99.90
15107;DHT22;7654;45.308;-75.096;2024-01-11T13:34:39;-5.50;99.90
15107;DHT22;7654;45.308;-75.096;2024-01-11T13:37:11;-5.50;99.90
15107;DHT22;7654;45.308;-75.096;2024-01-11T13:39:41;-5.40;99.90
15107;DHT22;7654;45.308;-75.096;2024-01-11T13:42:11;-5.30;99.90
15107;DHT22;7654;45.308;-75.096;2024-01-11T13:44:42;-5.30;99.90
15107;DHT22;7654;45.308;-75.096;2024-01-11T13:47:14;-5.30;99.90
15107;DHT22;7654;45.308;-75.096;2024-01-11T13:49:44;-5.30;99.90
15107;DHT22;7654;45.308;-75.096;2024-01-11T13:52:15;-5.20;99.90
15107;DHT22;7654;45.308;-75.096;2024-01-11T13:54:46;-5.20;99.90
15107;DHT22;7654;45.308;-75.096;2024-01-11T13:57:16;-5.20;99.90
15107;DHT22;7654;45.308;-75.096;2024-01-11T13:59:46;-5.10;99.90
15107;DHT22;7654;45.308;-75.096;2024-01-11T14:02:20;-5.10;99.90
15107;DHT22;7654;45.308;-75.096;2024-01-11T14:04:51;-5.10;99.90
15107;DHT22;7654;45.308;-75.096;2024-01-11T14:07:21;-5.00;99.90
15107;DHT22;7654;45.308;-75.096;2024-01-11T14:09:51;-5.00;99.90
15107;DHT22;7654;45.308;-75.096;2024-01-11T14:12:22;-4.90;99.90
15107;DHT22;7654;45.308;-75.096;2024-01-11T14:14:52;-4.90;99.90
15107;DHT22;7654;45.308;-75.096;2024-01-11T14:17:24;-4.80;99.90
15107;DHT22;7654;45.308;-75.096;2024-01-11T14:19:54;-4.70;99.90
15107;DHT22;7654;45.308;-75.096;2024-01-11T14:22:24;-4.70;99.90
15107;DHT22;7654;45.308;-75.096;2024-01-11T14:24:55;-4.70;99.90
15107;DHT22;7654;45.308;-75.096;2024-01-11T14:27:25;-4.60;99.90
15107;DHT22;7654;45.308;-75.096;2024-01-11T14:29:56;-4.60;99.90
15107;DHT22;7654;45.308;-75.096;2024-01-11T14:32:28;-4.60;99.90
15107;DHT22;7654;45.308;-75.096;2024-01-11T14:35:05;-4.60;99.90
15107;DHT22;7654;45.308;-75.096;2024-01-11T14:37:38;-4.60;99.90
15107;DHT22;7654;45.308;-75.096;2024-01-11T14:40:10;-4.60;99.90
15107;DHT22;7654;45.308;-75.096;2024-01-11T14:42:40;-4.50;99.90
15107;DHT22;7654;45.308;-75.096;2024-01-11T14:45:10;-4.40;99.90
15107;DHT22;7654;45.308;-75.096;2024-01-11T14:47:42;-4.40;99.90
15107;DHT22;7654;45.308;-75.096;2024-01-11T14:50:13;-4.20;99.90
15107;DHT22;7654;45.308;-75.096;2024-01-11T14:52:43;-4.30;99.90
15107;DHT22;7654;45.308;-75.096;2024-01-11T14:55:14;-4.30;99.90
15107;DHT22;7654;45.308;-75.096;2024-01-11T14:57:45;-4.20;99.90
15107;DHT22;7654;45.308;-75.096;2024-01-11T15:00:18;-4.20;99.90
15107;DHT22;7654;45.308;-75.096;2024-01-11T15:02:49;-4.00;99.90
15107;DHT22;7654;45.308;-75.096;2024-01-11T15:05:20;-3.80;99.90
15107;DHT22;7654;45.308;-75.096;2024-01-11T15:07:50;-3.70;99.90
15107;DHT22;7654;45.308;-75.096;2024-01-11T15:10:22;-3.60;99.90
15107;DHT22;7654;45.308;-75.096;2024-01-11T15:12:52;-3.60;99.90
15107;DHT22;7654;45.308;-75.096;2024-01-11T15:15:23;-3.50;99.90
15107;DHT22;7654;45.308;-75.096;2024-01-11T15:17:54;-3.40;99.90
15107;DHT22;7654;45.308;-75.096;2024-01-11T15:20:25;-3.40;99.90
15107;DHT22;7654;45.308;-75.096;2024-01-11T15:22:56;-3.40;99.90
15107;DHT22;7654;45.308;-75.096;2024-01-11T15:25:26;-3.50;99.90
15107;DHT22;7654;45.308;-75.096;2024-01-11T15:27:56;-3.50;99.90
15107;DHT22;7654;45.308;-75.096;2024-01-11T15:30:26;-3.40;99.90
15107;DHT22;7654;45.308;-75.096;2024-01-11T15:32:59;-3.20;99.90
15107;DHT22;7654;45.308;-75.096;2024-01-11T15:35:30;-3.00;99.90
15107;DHT22;7654;45.308;-75.096;2024-01-11T15:38:00;-2.90;99.90
15107;DHT22;7654;45.308;-75.096;2024-01-11T15:40:31;-2.80;99.90
15107;DHT22;7654;45.308;-75.096;2024-01-11T15:43:01;-2.70;99.90